Time;durP1;ratioP1;P1;durP2;ratioP2;P2;SDS_P1;SDS_P2;PMS_P1;PMS_P2;Temp;Humidity;BMP_temperature;BMP_pressure;BME280_temperature;BME280_humidity;BME280_pressure;Samples;Min_cycle;Max_cycle;Signal;HPM_P1;HPM_P2
2020/12/08 00:01:50;;;;;;;35.58;19.80;;;5.30;88.60;;;;;;5096440;28;20032;-73
2020/12/08 00:04:16;;;;;;;89.80;39.08;;;5.20;88.70;;;;;;5096320;28;20024;-72
2020/12/08 00:06:42;;;;;;;162.10;70.32;;;5.20;88.60;;;;;;5096009;28;20035;-74
2020/12/08 00:09:08;;;;;;;283.25;120.05;;;5.20;88.70;;;;;;5096519;28;20095;-72
2020/12/08 00:11:34;;;;;;;38.75;19.52;;;5.20;89.40;;;;;;5096201;28;20395;-73
2020/12/08 00:14:00;;;;;;;26.20;12.57;;;5.10;88.80;;;;;;5097341;28;20371;-72
2020/12/08 00:16:25;;;;;;;94.95;47.05;;;5.20;89.20;;;;;;5097722;28;20036;-73
2020/12/08 00:18:51;;;;;;;54.92;29.83;;;5.10;88.90;;;;;;5096112;28;20028;-72
2020/12/08 00:21:18;;;;;;;54.55;26.85;;;5.20;88.80;;;;;;5097318;28;20410;-73
2020/12/08 00:23:46;;;;;;;20.88;11.27;;;5.20;88.90;;;;;;5097559;28;20024;-75
2020/12/08 00:26:13;;;;;;;31.33;18.67;;;5.10;88.80;;;;;;5097496;28;20341;-74
2020/12/08 00:28:40;;;;;;;63.13;34.78;;;5.20;88.80;;;;;;5095560;28;20028;-73
2020/12/08 00:31:06;;;;;;;44.97;25.30;;;5.10;89.10;;;;;;5095254;28;20048;-72
2020/12/08 00:33:31;;;;;;;67.53;36.60;;;5.10;88.90;;;;;;5095738;28;20387;-72
2020/12/08 00:36:02;;;;;;;88.82;46.55;;;5.10;88.80;;;;;;5095441;28;20032;-73
2020/12/08 00:38:28;;;;;;;54.55;28.05;;;5.10;88.70;;;;;;5095743;28;20024;-73
2020/12/08 00:40:54;;;;;;;41.78;20.77;;;5.10;89.00;;;;;;5095915;28;20035;-73
2020/12/08 00:43:19;;;;;;;51.00;23.10;;;5.00;89.00;;;;;;5095648;28;20024;-73
2020/12/08 00:45:46;;;;;;;93.32;41.70;;;5.00;89.00;;;;;;5095555;28;20118;-73
2020/12/08 00:48:13;;;;;;;63.13;30.67;;;5.00;89.30;;;;;;5095433;28;20072;-73
2020/12/08 00:50:38;;;;;;;52.83;30.75;;;5.00;89.40;;;;;;5095407;28;20028;-72
2020/12/08 00:53:04;;;;;;;21.02;12.57;;;4.90;89.60;;;;;;5095429;28;20028;-74
2020/12/08 00:55:30;;;;;;;50.47;29.98;;;4.90;89.60;;;;;;5095070;28;20024;-72
2020/12/08 00:57:56;;;;;;;49.97;26.67;;;5.00;89.60;;;;;;5096865;28;20027;-72
2020/12/08 01:00:21;;;;;;;19.55;10.95;;;4.90;89.60;;;;;;5095247;28;20475;-73
2020/12/08 01:02:48;;;;;;;45.17;29.67;;;4.80;90.00;;;;;;5095464;28;20077;-73
2020/12/08 01:05:14;;;;;;;23.40;14.25;;;4.80;90.10;;;;;;5095186;28;20065;-72
2020/12/08 01:07:40;;;;;;;18.58;12.57;;;4.80;90.00;;;;;;5095153;28;20020;-73
2020/12/08 01:10:06;;;;;;;40.75;24.33;;;4.90;89.90;;;;;;5095997;28;20043;-73
2020/12/08 01:12:32;;;;;;;35.42;20.95;;;4.80;90.00;;;;;;5095091;28;20028;-74
2020/12/08 01:14:58;;;;;;;28.00;15.77;;;4.80;90.00;;;;;;5096584;28;20417;-73
2020/12/08 01:17:24;;;;;;;59.22;34.05;;;4.80;90.00;;;;;;5094639;28;20111;-75
2020/12/08 01:19:51;;;;;;;24.67;14.80;;;4.70;90.10;;;;;;5096211;28;20055;-72
2020/12/08 01:22:17;;;;;;;40.53;23.63;;;4.70;90.10;;;;;;5094839;28;20078;-72
2020/12/08 01:24:43;;;;;;;31.23;19.27;;;4.70;90.10;;;;;;5094601;28;20028;-73
2020/12/08 01:27:09;;;;;;;11.50;7.47;;;4.60;90.10;;;;;;5094758;28;20413;-73
2020/12/08 01:29:34;;;;;;;27.83;16.58;;;4.70;90.10;;;;;;5095494;28;20471;-74
2020/12/08 01:32:00;;;;;;;16.40;9.25;;;4.70;90.10;;;;;;5094366;28;20042;-72
2020/12/08 01:34:26;;;;;;;30.38;19.33;;;4.70;90.30;;;;;;5095965;28;20462;-72
2020/12/08 01:36:52;;;;;;;16.05;10.32;;;4.60;90.20;;;;;;5095937;28;20063;-72
2020/12/08 01:39:17;;;;;;;29.73;15.10;;;4.60;90.20;;;;;;5095941;28;20031;-73
2020/12/08 01:41:43;;;;;;;30.58;18.30;;;4.60;90.10;;;;;;5094563;28;20486;-73
2020/12/08 01:44:09;;;;;;;23.85;15.20;;;4.70;90.10;;;;;;5094472;28;20028;-73
2020/12/08 01:46:36;;;;;;;60.65;34.17;;;4.70;90.20;;;;;;5094354;28;20036;-73
2020/12/08 01:49:02;;;;;;;45.33;26.00;;;4.60;90.10;;;;;;5095690;28;20035;-72
2020/12/08 01:51:28;;;;;;;78.57;45.22;;;4.50;90.30;;;;;;5093634;28;20040;-73
2020/12/08 01:53:55;;;;;;;71.55;40.50;;;4.60;90.30;;;;;;5093871;28;20020;-73
2020/12/08 01:56:20;;;;;;;64.57;34.88;;;4.50;90.30;;;;;;5094234;28;20436;-73
2020/12/08 01:58:47;;;;;;;72.97;40.72;;;4.60;90.20;;;;;;5093593;28;20052;-72
2020/12/08 02:01:14;;;;;;;47.38;25.92;;;4.60;90.30;;;;;;5094152;28;20035;-73
2020/12/08 02:03:41;;;;;;;53.25;27.20;;;4.60;90.10;;;;;;5095622;28;20352;-73
2020/12/08 02:06:07;;;;;;;61.28;34.00;;;4.60;90.00;;;;;;5093982;28;20378;-72
2020/12/08 02:08:36;;;;;;;50.88;23.15;;;4.70;90.00;;;;;;5094039;28;20047;-72
2020/12/08 02:11:03;;;;;;;40.47;18.70;;;4.60;90.10;;;;;;5095123;28;20032;-74
2020/12/08 02:13:29;;;;;;;55.33;31.92;;;4.60;90.00;;;;;;5094824;28;20031;-71
2020/12/08 02:15:55;;;;;;;40.80;23.27;;;4.60;90.10;;;;;;5093065;28;20031;-72
2020/12/08 02:18:22;;;;;;;33.15;16.98;;;4.50;90.20;;;;;;5093732;28;20024;-73
2020/12/08 02:21:02;;;;;;;41.30;25.00;;;4.50;90.20;;;;;;5094770;28;20031;-72
2020/12/08 02:23:28;;;;;;;39.70;21.85;;;4.50;90.30;;;;;;5093763;28;20498;-72
2020/12/08 02:26:05;;;;;;;38.85;23.50;;;4.50;90.10;;;;;;5095178;28;20098;-72
2020/12/08 02:28:32;;;;;;;25.58;14.57;;;4.60;90.00;;;;;;5093572;28;20024;-74
2020/12/08 02:30:59;;;;;;;23.13;13.48;;;4.60;90.00;;;;;;5093319;28;20044;-72
2020/12/08 02:33:26;;;;;;;24.27;14.88;;;4.60;89.80;;;;;;5093166;28;20214;-72
2020/12/08 02:35:55;;;;;;;19.92;13.82;;;4.60;89.80;;;;;;5094785;28;20038;-72
2020/12/08 02:38:25;;;;;;;30.17;17.58;;;4.60;89.60;;;;;;5094731;28;20125;-72
2020/12/08 02:40:54;;;;;;;42.63;26.60;;;4.60;89.70;;;;;;5093194;28;20031;-72
2020/12/08 02:43:21;;;;;;;19.25;13.07;;;4.60;89.80;;;;;;5094740;28;20352;-72
2020/12/08 02:45:47;;;;;;;14.52;9.70;;;4.60;89.70;;;;;;5094882;28;20024;-72
2020/12/08 02:48:12;;;;;;;19.73;11.00;;;4.50;89.70;;;;;;5093977;28;20464;-73
2020/12/08 02:50:38;;;;;;;15.55;8.60;;;4.50;90.00;;;;;;5094338;28;20036;-73
2020/12/08 02:53:04;;;;;;;15.23;9.35;;;4.50;89.90;;;;;;5093171;28;20178;-73
2020/12/08 02:55:30;;;;;;;12.70;6.88;;;4.50;89.90;;;;;;5093000;28;20056;-73
2020/12/08 02:57:56;;;;;;;11.18;6.28;;;4.50;89.90;;;;;;5093128;28;20535;-72
2020/12/08 03:00:22;;;;;;;10.77;5.93;;;4.50;90.00;;;;;;5094049;28;20175;-72
2020/12/08 03:02:48;;;;;;;10.25;5.07;;;4.50;90.00;;;;;;5092737;28;20352;-71
2020/12/08 03:05:13;;;;;;;10.30;5.28;;;4.40;90.00;;;;;;5092953;28;20031;-72
2020/12/08 03:07:39;;;;;;;9.65;6.10;;;4.40;90.00;;;;;;5094243;28;20016;-73
2020/12/08 03:10:07;;;;;;;11.23;5.93;;;4.40;90.00;;;;;;5093575;28;20101;-73
2020/12/08 03:12:33;;;;;;;10.95;5.93;;;4.40;90.00;;;;;;5092858;28;20529;-74
2020/12/08 03:14:59;;;;;;;10.38;5.63;;;4.30;90.10;;;;;;5093854;28;20102;-72
2020/12/08 03:17:25;;;;;;;9.80;5.97;;;4.30;90.10;;;;;;5092804;28;20055;-75
2020/12/08 03:19:51;;;;;;;9.60;5.43;;;4.30;90.00;;;;;;5094351;28;20031;-74
2020/12/08 03:22:17;;;;;;;10.65;5.45;;;4.30;90.20;;;;;;5092781;28;20024;-73
2020/12/08 03:24:42;;;;;;;9.82;5.45;;;4.30;90.00;;;;;;5092734;28;20024;-72
2020/12/08 03:27:08;;;;;;;8.05;4.40;;;4.30;90.10;;;;;;5093555;28;20024;-71
2020/12/08 03:29:34;;;;;;;8.88;4.30;;;4.20;90.10;;;;;;5093215;28;20035;-72
2020/12/08 03:32:00;;;;;;;7.63;3.72;;;4.20;90.20;;;;;;5093954;28;20115;-73
2020/12/08 03:34:26;;;;;;;5.40;3.78;;;4.20;90.20;;;;;;5093973;28;20028;-73
2020/12/08 03:36:51;;;;;;;5.80;4.00;;;4.20;90.30;;;;;;5093640;28;20026;-72
2020/12/08 03:39:17;;;;;;;8.02;4.80;;;4.20;90.30;;;;;;5093910;28;20020;-73
2020/12/08 03:41:43;;;;;;;8.95;5.18;;;4.20;90.00;;;;;;5092662;28;20039;-71
2020/12/08 03:44:10;;;;;;;6.65;4.43;;;4.20;90.10;;;;;;5092245;28;20111;-73
2020/12/08 03:46:36;;;;;;;5.68;3.85;;;4.10;90.20;;;;;;5092583;28;20047;-72
2020/12/08 03:49:03;;;;;;;8.60;4.85;;;4.10;90.20;;;;;;5094039;28;20024;-72
2020/12/08 03:51:28;;;;;;;8.18;4.93;;;4.10;90.20;;;;;;5092119;28;20036;-73
2020/12/08 03:53:54;;;;;;;7.60;4.65;;;4.00;90.30;;;;;;5092477;28;20024;-72
2020/12/08 03:56:20;;;;;;;9.60;5.45;;;4.00;90.30;;;;;;5092714;28;20462;-73
2020/12/08 03:58:47;;;;;;;11.25;6.40;;;4.00;90.40;;;;;;5092103;28;20478;-72
2020/12/08 04:01:20;;;;;;;15.73;8.02;;;4.00;90.30;;;;;;5092408;28;20532;-73
2020/12/08 04:03:48;;;;;;;12.48;7.28;;;4.00;90.30;;;;;;5093530;28;20478;-73
2020/12/08 04:06:14;;;;;;;27.17;14.90;;;4.00;90.30;;;;;;5093664;28;20372;-72
2020/12/08 04:08:40;;;;;;;29.85;16.40;;;3.90;90.30;;;;;;5092886;28;20028;-72
2020/12/08 04:11:06;;;;;;;29.23;16.65;;;4.00;90.30;;;;;;5091600;28;20036;-73
2020/12/08 04:13:32;;;;;;;34.42;18.23;;;4.00;90.20;;;;;;5092234;28;20027;-73
2020/12/08 04:15:59;;;;;;;31.80;17.23;;;4.00;90.30;;;;;;5093569;28;20067;-73
2020/12/08 04:18:25;;;;;;;36.63;17.75;;;4.00;90.10;;;;;;5092910;28;20028;-72
2020/12/08 04:20:51;;;;;;;21.33;12.43;;;4.00;90.10;;;;;;5091901;28;20038;-75
2020/12/08 04:23:18;;;;;;;15.13;7.90;;;4.00;90.00;;;;;;5093587;28;20438;-73
2020/12/08 04:25:45;;;;;;;14.52;7.65;;;4.00;90.00;;;;;;5093116;28;20028;-72
2020/12/08 04:28:10;;;;;;;8.73;4.75;;;4.00;89.80;;;;;;5092159;28;20486;-74
2020/12/08 04:30:38;;;;;;;9.48;5.10;;;4.00;89.80;;;;;;5093337;28;20119;-72
2020/12/08 04:33:05;;;;;;;9.30;5.70;;;4.00;90.00;;;;;;5091801;28;20028;-72
2020/12/08 04:35:30;;;;;;;9.07;5.35;;;3.90;90.00;;;;;;5092070;28;20024;-73
2020/12/08 04:37:57;;;;;;;6.85;4.63;;;3.90;90.10;;;;;;5093228;28;20031;-72
2020/12/08 04:40:23;;;;;;;13.48;5.18;;;3.90;90.10;;;;;;5095400;28;20028;-72
2020/12/08 04:42:53;;;;;;;7.47;5.25;;;3.90;90.10;;;;;;5095636;28;20020;-72
2020/12/08 04:45:20;;;;;;;7.53;4.55;;;3.90;90.00;;;;;;5096524;28;20355;-73
2020/12/08 04:47:46;;;;;;;6.45;4.32;;;3.80;90.10;;;;;;5095311;28;20021;-73
2020/12/08 04:50:15;;;;;;;6.60;4.15;;;3.70;90.40;;;;;;5096719;28;20047;-73
2020/12/08 04:52:41;;;;;;;6.55;4.40;;;3.70;90.40;;;;;;5095486;28;20062;-73
2020/12/08 04:55:07;;;;;;;12.95;5.72;;;3.70;90.40;;;;;;5095146;28;20027;-73
2020/12/08 04:57:33;;;;;;;8.07;4.80;;;3.60;90.40;;;;;;5095424;28;20086;-72
2020/12/08 05:00:12;;;;;;;10.65;6.57;;;3.70;90.50;;;;;;5095069;28;20024;-73
2020/12/08 05:02:52;;;;;;;8.00;5.60;;;3.60;90.50;;;;;;5095186;28;20065;-75
2020/12/08 05:05:18;;;;;;;10.05;7.15;;;3.60;90.40;;;;;;5095296;28;20486;-72
2020/12/08 05:07:45;;;;;;;10.68;5.57;;;3.60;90.40;;;;;;5096554;28;20028;-73
2020/12/08 05:10:12;;;;;;;13.55;8.63;;;3.70;90.30;;;;;;5095246;28;20060;-73
2020/12/08 05:12:37;;;;;;;17.50;10.40;;;3.70;90.20;;;;;;5095938;28;20063;-73
2020/12/08 05:15:04;;;;;;;19.63;10.85;;;3.80;90.10;;;;;;5094751;28;20482;-73
2020/12/08 05:17:31;;;;;;;18.60;10.07;;;3.70;90.00;;;;;;5096254;28;20024;-72
2020/12/08 05:20:05;;;;;;;28.73;14.05;;;3.70;90.20;;;;;;5095795;28;20024;-72
2020/12/08 05:22:30;;;;;;;27.38;11.77;;;3.60;90.40;;;;;;5094846;28;20024;-73
2020/12/08 05:25:07;;;;;;;29.85;12.93;;;3.60;90.50;;;;;;5094900;28;20050;-74
2020/12/08 05:27:33;;;;;;;33.08;14.23;;;3.60;90.40;;;;;;5096142;28;20411;-72
2020/12/08 05:30:06;;;;;;;21.60;11.15;;;3.60;90.40;;;;;;5095410;28;20120;-73
2020/12/08 05:32:40;;;;;;;84.57;34.73;;;3.60;90.30;;;;;;5095839;28;20389;-73
2020/12/08 05:35:11;;;;;;;30.65;13.82;;;3.60;90.40;;;;;;5096124;28;20614;-72
2020/12/08 05:37:39;;;;;;;58.88;24.30;;;3.50;90.40;;;;;;5094674;28;20031;-73
2020/12/08 05:40:08;;;;;;;30.38;12.57;;;3.50;90.40;;;;;;5095618;28;20040;-73
2020/12/08 05:42:35;;;;;;;112.40;44.70;;;3.60;90.20;;;;;;5094667;28;20028;-73
2020/12/08 05:45:01;;;;;;;66.25;26.50;;;3.60;90.30;;;;;;5094497;28;20024;-73
2020/12/08 05:47:26;;;;;;;62.90;27.58;;;3.60;90.20;;;;;;5094394;28;20026;-73
2020/12/08 05:50:01;;;;;;;29.02;12.85;;;3.50;90.30;;;;;;5093978;28;20027;-73
2020/12/08 05:52:28;;;;;;;;;;;3.50;90.40;;;;;;5094807;28;20032;-73
2020/12/08 05:55:05;;;;;;;27.05;11.73;;;3.40;90.50;;;;;;5094263;28;19912;-73
2020/12/08 05:57:32;;;;;;;17.20;8.13;;;3.40;90.70;;;;;;5094132;28;20435;-73
2020/12/08 05:59:58;;;;;;;19.60;9.27;;;3.50;90.50;;;;;;5095478;28;20024;-73
2020/12/08 06:02:30;;;;;;;21.40;10.30;;;3.50;90.30;;;;;;5094439;28;20440;-72
2020/12/08 06:04:57;;;;;;;42.58;19.38;;;3.60;90.30;;;;;;5094806;28;20468;-73
2020/12/08 06:07:31;;;;;;;19.67;9.80;;;3.50;90.40;;;;;;5094023;28;20028;-72
2020/12/08 06:10:10;;;;;;;22.85;11.40;;;3.50;90.40;;;;;;5093952;28;20077;-72
2020/12/08 06:12:38;;;;;;;24.15;11.38;;;3.50;90.30;;;;;;5095255;28;20028;-73
2020/12/08 06:15:22;;;;;;;22.63;11.73;;;3.50;90.40;;;;;;5095521;28;20020;-71
2020/12/08 06:17:49;;;;;;;19.65;11.43;;;3.60;90.50;;;;;;5094546;28;20487;-74
2020/12/08 06:20:15;;;;;;;20.52;12.25;;;3.60;90.30;;;;;;5093830;28;20035;-72
2020/12/08 06:22:41;;;;;;;21.67;11.95;;;3.60;90.30;;;;;;5094348;28;20028;-72
2020/12/08 06:25:11;;;;;;;37.47;19.02;;;3.60;90.40;;;;;;5093521;28;20371;-74
2020/12/08 06:27:37;;;;;;;40.35;22.95;;;3.60;90.30;;;;;;5094276;28;20020;-73
2020/12/08 06:30:03;;;;;;;51.72;26.73;;;3.60;90.50;;;;;;5093240;28;20389;-72
2020/12/08 06:32:30;;;;;;;36.45;22.77;;;3.70;90.10;;;;;;5094233;28;20035;-72
2020/12/08 06:35:11;;;;;;;28.45;17.98;;;3.70;90.00;;;;;;5093534;28;20051;-74
2020/12/08 06:37:47;;;;;;;35.53;19.88;;;3.80;90.00;;;;;;5094481;28;20387;-73
2020/12/08 06:40:18;;;;;;;35.28;19.48;;;3.70;90.20;;;;;;5093514;28;20028;-73
2020/12/08 06:42:46;;;;;;;26.60;14.90;;;3.70;90.30;;;;;;5094786;28;20055;-72
2020/12/08 06:45:17;;;;;;;28.33;19.70;;;3.60;90.40;;;;;;5094318;28;20024;-73
2020/12/08 06:47:45;;;;;;;17.90;9.60;;;3.70;90.30;;;;;;5094660;28;20020;-71
2020/12/08 06:50:30;;;;;;;34.55;20.15;;;3.70;90.30;;;;;;5094734;28;20035;-72
2020/12/08 06:53:01;;;;;;;25.83;15.27;;;3.70;90.40;;;;;;5094186;28;20032;-73
2020/12/08 06:55:30;;;;;;;32.70;16.85;;;3.70;90.40;;;;;;5093374;28;20521;-72
2020/12/08 06:58:05;;;;;;;34.38;18.58;;;3.70;90.40;;;;;;5094676;28;20064;-72
2020/12/08 07:00:31;;;;;;;44.55;26.08;;;3.70;90.40;;;;;;5092346;28;20032;-72
2020/12/08 07:02:57;;;;;;;36.28;19.63;;;3.80;90.40;;;;;;5093260;28;20031;-72
2020/12/08 07:05:28;;;;;;;35.50;19.27;;;3.80;90.30;;;;;;5094027;28;20020;-72
2020/12/08 07:07:57;;;;;;;38.42;21.83;;;3.80;90.30;;;;;;5093901;28;20020;-72
2020/12/08 07:10:23;;;;;;;29.27;17.05;;;3.80;90.30;;;;;;5093901;28;20039;-72
2020/12/08 07:12:52;;;;;;;18.83;11.20;;;3.90;90.30;;;;;;5092549;28;20028;-72
2020/12/08 07:15:21;;;;;;;25.60;15.20;;;3.90;90.20;;;;;;5094132;28;20047;-71
2020/12/08 07:18:06;;;;;;;12.73;8.73;;;3.80;90.10;;;;;;5092785;28;20115;-72
2020/12/08 07:20:33;;;;;;;18.52;11.30;;;3.90;90.30;;;;;;5092583;28;20047;-75
2020/12/08 07:23:06;;;;;;;21.92;11.65;;;3.90;90.20;;;;;;5092712;28;20112;-73
2020/12/08 07:25:33;;;;;;;20.73;12.00;;;3.90;90.20;;;;;;5093754;28;20024;-73
2020/12/08 07:28:00;;;;;;;24.38;15.00;;;3.90;90.20;;;;;;5093476;28;20032;-74
2020/12/08 07:30:28;;;;;;;22.80;11.90;;;3.90;90.40;;;;;;5092225;28;20044;-74
2020/12/08 07:32:55;;;;;;;26.35;14.30;;;4.00;90.30;;;;;;5093151;28;20337;-72
2020/12/08 07:35:26;;;;;;;26.20;14.45;;;4.00;90.20;;;;;;5092204;28;20057;-73
2020/12/08 07:37:57;;;;;;;16.48;8.55;;;4.00;90.20;;;;;;5092547;28;20024;-73
2020/12/08 07:40:33;;;;;;;35.30;18.92;;;4.10;90.00;;;;;;5092312;28;20032;-72
2020/12/08 07:42:59;;;;;;;27.73;16.23;;;4.20;90.20;;;;;;5092560;28;20035;-73
2020/12/08 07:45:24;;;;;;;20.33;10.88;;;4.20;90.10;;;;;;5092332;28;20056;-73
2020/12/08 07:47:56;;;;;;;24.30;12.85;;;4.20;90.10;;;;;;5092271;28;20074;-74
2020/12/08 07:50:32;;;;;;;14.52;9.63;;;4.30;90.10;;;;;;5092776;28;20097;-73
2020/12/08 07:53:04;;;;;;;13.45;9.05;;;4.30;89.40;;;;;;5093252;28;20026;-74
2020/12/08 07:55:41;;;;;;;29.90;16.23;;;4.40;89.30;;;;;;5092352;28;20024;-73
2020/12/08 07:58:07;;;;;;;16.13;8.77;;;4.50;89.00;;;;;;5092449;28;20028;-72
2020/12/08 08:00:33;;;;;;;18.30;10.85;;;4.50;88.90;;;;;;5093432;28;20107;-72
2020/12/08 08:02:58;;;;;;;16.42;10.23;;;4.60;89.10;;;;;;5092064;28;20523;-73
2020/12/08 08:05:25;;;;;;;23.23;12.43;;;4.60;88.90;;;;;;5092124;28;20028;-74
2020/12/08 08:07:50;;;;;;;22.90;12.55;;;4.70;88.40;;;;;;5093625;28;20089;-74
2020/12/08 08:10:16;;;;;;;31.05;17.23;;;4.80;88.00;;;;;;5092313;28;20468;-72
2020/12/08 08:12:42;;;;;;;17.00;9.77;;;4.80;88.00;;;;;;5093997;28;20111;-73
2020/12/08 08:15:10;;;;;;;23.90;14.52;;;4.90;88.10;;;;;;5097780;28;20391;-74
2020/12/08 08:17:36;;;;;;;29.30;16.25;;;4.90;87.70;;;;;;5095880;28;20028;-74
2020/12/08 08:20:03;;;;;;;14.15;8.68;;;5.00;87.80;;;;;;5096261;28;20058;-73
2020/12/08 08:22:28;;;;;;;16.52;10.07;;;5.00;87.40;;;;;;5096074;28;20460;-74
2020/12/08 08:24:55;;;;;;;14.57;9.45;;;5.10;87.50;;;;;;5096594;28;20026;-74
2020/12/08 08:27:21;;;;;;;20.48;12.30;;;5.10;86.70;;;;;;5096013;28;20024;-74
2020/12/08 08:29:46;;;;;;;18.70;11.75;;;5.20;86.90;;;;;;5096764;28;20051;-72
2020/12/08 08:32:12;;;;;;;17.17;9.93;;;5.20;86.60;;;;;;5095830;28;20468;-72
2020/12/08 08:34:38;;;;;;;17.60;10.15;;;5.30;86.50;;;;;;5095848;28;20024;-74
2020/12/08 08:37:04;;;;;;;17.52;10.55;;;5.40;86.10;;;;;;5095511;28;20139;-73
2020/12/08 08:39:29;;;;;;;16.95;10.93;;;5.50;86.00;;;;;;5096783;28;20040;-75
2020/12/08 08:41:55;;;;;;;24.75;14.75;;;5.60;86.30;;;;;;5095505;28;20066;-73
2020/12/08 08:44:22;;;;;;;20.33;12.60;;;5.70;85.70;;;;;;5095461;28;20032;-72
2020/12/08 08:46:47;;;;;;;20.17;11.73;;;5.80;85.40;;;;;;5095884;28;20422;-74
2020/12/08 08:49:16;;;;;;;28.90;12.60;;;5.90;85.20;;;;;;5096634;28;20024;-72
2020/12/08 08:51:43;;;;;;;13.90;10.02;;;6.00;84.80;;;;;;5095428;28;20127;-72
2020/12/08 08:54:10;;;;;;;19.88;12.57;;;6.20;83.60;;;;;;5095526;28;20020;-73
2020/12/08 08:56:36;;;;;;;23.08;12.40;;;6.30;82.90;;;;;;5096701;28;20043;-73
2020/12/08 08:59:02;;;;;;;32.60;18.67;;;6.40;83.50;;;;;;5096087;28;20028;-71
2020/12/08 09:01:28;;;;;;;32.90;15.82;;;6.60;83.30;;;;;;5095282;28;20383;-75
2020/12/08 09:03:53;;;;;;;35.85;15.63;;;6.70;81.40;;;;;;5095877;28;20020;-74
2020/12/08 09:06:19;;;;;;;39.13;16.88;;;6.90;81.30;;;;;;5094912;28;20038;-72
2020/12/08 09:08:45;;;;;;;44.33;18.13;;;7.20;79.20;;;;;;5095249;28;20028;-71
2020/12/08 09:11:11;;;;;;;45.25;17.67;;;7.60;78.10;;;;;;5095383;28;20472;-73
2020/12/08 09:13:37;;;;;;;29.63;13.68;;;7.90;77.00;;;;;;5095858;28;20032;-73
2020/12/08 09:16:03;;;;;;;24.00;13.05;;;7.90;76.00;;;;;;5095161;28;20433;-75
2020/12/08 09:18:29;;;;;;;19.60;10.30;;;8.30;76.20;;;;;;5096309;28;20024;-73
2020/12/08 09:20:55;;;;;;;17.33;9.13;;;8.50;75.90;;;;;;5096243;28;20129;-72
2020/12/08 09:23:22;;;;;;;23.50;13.05;;;8.70;73.80;;;;;;5093713;28;20031;-74
2020/12/08 09:25:49;;;;;;;29.98;16.23;;;8.80;74.20;;;;;;5093449;28;20035;-72
2020/12/08 09:28:15;;;;;;;22.23;12.05;;;9.30;72.50;;;;;;5095641;28;20020;-75
2020/12/08 09:30:41;;;;;;;17.00;9.48;;;9.30;71.50;;;;;;5093672;28;20567;-74
2020/12/08 09:33:06;;;;;;;20.77;12.02;;;9.30;71.50;;;;;;5094307;28;20122;-73
2020/12/08 09:35:32;;;;;;;16.88;10.23;;;9.60;72.30;;;;;;5094649;28;20024;-74
2020/12/08 09:37:58;;;;;;;14.25;9.80;;;9.70;70.20;;;;;;5094548;28;20024;-73
2020/12/08 09:40:24;;;;;;;23.13;13.90;;;9.70;70.00;;;;;;5093933;28;20040;-77
2020/12/08 09:42:50;;;;;;;57.83;37.22;;;9.80;69.50;;;;;;5094520;28;20047;-71
2020/12/08 09:45:16;;;;;;;28.35;15.30;;;9.80;70.10;;;;;;5094487;28;20093;-73
2020/12/08 09:47:41;;;;;;;25.05;15.70;;;10.10;69.10;;;;;;5095469;28;20520;-75
2020/12/08 09:50:10;;;;;;;21.65;13.40;;;9.70;68.60;;;;;;5094463;28;20032;-76
2020/12/08 09:52:37;;;;;;;29.50;18.42;;;9.80;69.20;;;;;;5094308;28;20459;-73
2020/12/08 09:55:04;;;;;;;21.73;13.65;;;10.00;69.00;;;;;;5093891;28;20486;-74
2020/12/08 09:57:30;;;;;;;31.83;19.73;;;10.30;69.30;;;;;;5094184;28;20020;-74
2020/12/08 09:59:56;;;;;;;28.60;18.85;;;10.30;67.30;;;;;;5093924;28;20039;-75
2020/12/08 10:02:24;;;;;;;44.20;27.38;;;10.20;67.60;;;;;;5094708;28;20058;-75
2020/12/08 10:04:51;;;;;;;14.65;9.15;;;10.90;68.10;;;;;;5093485;28;20024;-75
2020/12/08 10:07:20;;;;;;;18.02;12.98;;;10.70;65.30;;;;;;5094082;28;20125;-73
2020/12/08 10:09:46;;;;;;;15.80;9.57;;;10.90;68.70;;;;;;5092887;28;20024;-75
2020/12/08 10:12:13;;;;;;;18.02;12.73;;;10.70;65.90;;;;;;5093389;28;20044;-74
2020/12/08 10:14:40;;;;;;;22.70;13.18;;;10.80;66.20;;;;;;5094136;28;20456;-76
2020/12/08 10:17:07;;;;;;;29.85;19.40;;;11.00;67.50;;;;;;5092851;28;20028;-76
2020/12/08 10:19:33;;;;;;;45.30;26.05;;;11.20;64.60;;;;;;5093887;28;20122;-73
2020/12/08 10:21:59;;;;;;;51.17;29.17;;;11.40;63.60;;;;;;5093438;28;20036;-75
2020/12/08 10:24:25;;;;;;;19.13;11.32;;;11.50;63.20;;;;;;5093456;28;20028;-75
2020/12/08 10:26:51;;;;;;;18.40;12.80;;;11.30;63.30;;;;;;5094574;28;20024;-75
2020/12/08 10:29:19;;;;;;;29.25;15.65;;;10.90;64.50;;;;;;5093609;28;20063;-74
2020/12/08 10:31:45;;;;;;;32.97;17.85;;;11.20;65.00;;;;;;5093536;28;20039;-75
2020/12/08 10:34:11;;;;;;;35.72;20.42;;;11.40;65.50;;;;;;5094171;28;20116;-76
2020/12/08 10:36:37;;;;;;;27.10;15.82;;;11.80;62.30;;;;;;5092863;28;20024;-74
2020/12/08 10:39:04;;;;;;;37.15;22.48;;;11.80;63.10;;;;;;5093471;28;20028;-74
2020/12/08 10:41:30;;;;;;;30.00;21.10;;;12.00;61.70;;;;;;5094296;28;20028;-75
2020/12/08 10:43:56;;;;;;;23.55;15.30;;;12.20;61.10;;;;;;5094405;28;20031;-74
2020/12/08 10:46:22;;;;;;;25.45;17.25;;;12.10;61.10;;;;;;5094159;28;20486;-73
2020/12/08 10:48:50;;;;;;;22.25;14.10;;;12.50;60.20;;;;;;5094746;28;20458;-78
2020/12/08 10:51:20;;;;;;;20.05;13.52;;;12.50;59.80;;;;;;5093013;28;20036;-74
2020/12/08 10:53:46;;;;;;;17.63;10.43;;;12.30;61.30;;;;;;5093283;28;20031;-76
2020/12/08 10:56:25;;;;;;;20.13;13.85;;;12.20;61.10;;;;;;5094564;28;20024;-73
2020/12/08 10:58:52;;;;;;;26.35;16.38;;;12.20;61.40;;;;;;5093108;28;20024;-74
2020/12/08 11:01:25;;;;;;;15.48;10.55;;;11.90;61.80;;;;;;5093489;28;20443;-75
2020/12/08 11:03:52;;;;;;;13.77;8.40;;;12.00;61.60;;;;;;5093846;28;20442;-77
2020/12/08 11:06:27;;;;;;;16.10;10.82;;;11.80;61.90;;;;;;5094451;28;20073;-74
2020/12/08 11:08:54;;;;;;;27.13;18.08;;;11.50;62.60;;;;;;5092921;28;20028;-76
2020/12/08 11:11:25;;;;;;;24.75;13.02;;;11.70;64.40;;;;;;5094262;28;20043;-74
2020/12/08 11:13:52;;;;;;;21.85;13.95;;;11.70;62.60;;;;;;5094169;28;20024;-73
2020/12/08 11:16:19;;;;;;;31.95;20.33;;;11.50;62.80;;;;;;5092585;28;20024;-74
2020/12/08 11:18:45;;;;;;;22.77;12.80;;;11.90;63.70;;;;;;5093059;28;20467;-77
2020/12/08 11:21:11;;;;;;;23.88;13.43;;;11.90;62.50;;;;;;5092812;28;20127;-74
2020/12/08 11:23:40;;;;;;;23.90;13.55;;;11.90;63.00;;;;;;5092800;28;20120;-74
2020/12/08 11:26:10;;;;;;;19.20;11.88;;;11.90;62.50;;;;;;5092254;28;20081;-76
2020/12/08 11:28:36;;;;;;;14.05;9.55;;;12.00;62.10;;;;;;5093093;28;20028;-73
2020/12/08 11:31:01;;;;;;;28.23;18.48;;;11.70;62.90;;;;;;5092220;28;20395;-73
2020/12/08 11:33:27;;;;;;;20.27;14.20;;;11.90;62.30;;;;;;5092448;28;20028;-74
2020/12/08 11:35:54;;;;;;;25.38;15.98;;;12.00;62.10;;;;;;5094076;28;20399;-75
2020/12/08 11:38:20;;;;;;;17.42;11.88;;;12.30;61.50;;;;;;5092594;28;20413;-73
2020/12/08 11:40:46;;;;;;;18.73;11.70;;;12.10;62.30;;;;;;5093322;28;20154;-73
2020/12/08 11:43:12;;;;;;;20.13;12.40;;;12.20;62.10;;;;;;5092005;28;20122;-76
2020/12/08 11:45:38;;;;;;;32.65;19.20;;;12.40;61.70;;;;;;5092022;28;20020;-74
2020/12/08 11:48:03;;;;;;;18.52;10.85;;;12.70;61.60;;;;;;5095111;28;20387;-76
2020/12/08 11:50:29;;;;;;;20.45;10.82;;;12.20;60.80;;;;;;5096602;28;20031;-75
2020/12/08 11:52:55;;;;;;;19.00;12.73;;;12.10;62.60;;;;;;5096371;28;20040;-76
2020/12/08 11:55:21;;;;;;;55.70;28.42;;;12.40;62.80;;;;;;5096624;28;20032;-74
2020/12/08 11:57:47;;;;;;;29.42;17.00;;;12.40;61.50;;;;;;5096603;28;20024;-75
2020/12/08 12:00:13;;;;;;;21.60;12.25;;;11.90;62.40;;;;;;5097580;28;20111;-76
2020/12/08 12:02:38;;;;;;;23.15;12.77;;;11.40;64.10;;;;;;5096846;28;20119;-75
2020/12/08 12:05:05;;;;;;;23.40;14.60;;;11.00;64.80;;;;;;5096458;28;20371;-74
2020/12/08 12:07:31;;;;;;;27.13;17.23;;;10.80;66.70;;;;;;5096486;28;20047;-74
2020/12/08 12:09:56;;;;;;;27.25;16.38;;;10.70;67.10;;;;;;5096324;28;20020;-75
2020/12/08 12:12:22;;;;;;;35.20;20.65;;;10.50;67.60;;;;;;5096268;28;20042;-75
2020/12/08 12:14:48;;;;;;;34.58;19.95;;;10.40;68.40;;;;;;5095977;28;20062;-74
2020/12/08 12:17:14;;;;;;;24.80;14.45;;;10.60;68.60;;;;;;5096312;28;20054;-73
2020/12/08 12:19:40;;;;;;;29.13;20.02;;;11.00;67.20;;;;;;5096543;28;20032;-75
2020/12/08 12:22:05;;;;;;;31.65;21.17;;;10.90;66.60;;;;;;5095797;28;20379;-73
2020/12/08 12:24:31;;;;;;;27.25;18.88;;;10.90;67.60;;;;;;5097099;28;20059;-74
2020/12/08 12:26:57;;;;;;;38.05;20.63;;;10.90;67.50;;;;;;5097602;28;20024;-75
2020/12/08 12:29:23;;;;;;;33.17;20.40;;;11.30;66.60;;;;;;5095515;28;20021;-76
2020/12/08 12:31:49;;;;;;;27.65;18.30;;;11.60;65.40;;;;;;5095893;28;20169;-74
2020/12/08 12:34:15;;;;;;;28.35;17.52;;;12.30;64.60;;;;;;5095607;28;20080;-77
2020/12/08 12:36:46;;;;;;;29.67;19.02;;;12.50;62.10;;;;;;5096636;28;20028;-76
2020/12/08 12:39:11;;;;;;;26.67;18.02;;;12.90;61.40;;;;;;5095881;28;20028;-76